Terminal Aerodrome Forecast
Issued by NWS

Home | Current Version | Previous Version | Graphics & Text | Print | Product List | Glossary On
Versions: 1 2 3 4 5 6 7 8 9 10 11 12
000
FTUS43 KGRB 251136
TAFMTW
TAF
KMTW 251136Z 2512/2612 26008KT P6SM SCT025 BKN100
     FM252000 29010G17KT P6SM VCSH BKN040
     FM260000 29007KT P6SM SCT030 BKN080
      TEMPO 2600/2603 -SHRA BKN030
     FM260900 28007KT P6SM BKN020=

USA.gov is the U.S. government's official web portal to all federal, state and local government web resources and services.